createdAt,value
2018-04-27T00:00:36.134Z,8.62
2018-04-27T00:03:04.422Z,8.60
2018-04-27T00:05:32.572Z,8.55
2018-04-27T00:08:01.161Z,8.53
2018-04-27T00:10:28.706Z,8.50
2018-04-27T00:12:56.891Z,8.48
2018-04-27T00:15:24.403Z,8.47
2018-04-27T00:17:51.927Z,8.46
2018-04-27T00:20:20.027Z,8.44
2018-04-27T00:22:47.612Z,8.40
2018-04-27T00:25:15.129Z,8.37
2018-04-27T00:27:42.682Z,8.37
2018-04-27T00:30:10.207Z,8.34
2018-04-27T00:32:38.601Z,8.35
2018-04-27T00:35:06.179Z,8.35
2018-04-27T00:37:34.170Z,8.34
2018-04-27T00:40:01.688Z,8.33
2018-04-27T00:42:29.317Z,8.31
2018-04-27T00:44:58.634Z,8.32
2018-04-27T00:47:26.799Z,8.31
2018-04-27T00:49:55.287Z,8.29
2018-04-27T00:52:23.638Z,8.28
2018-04-27T00:54:51.163Z,8.23
2018-04-27T00:57:19.116Z,8.19
2018-04-27T00:59:46.626Z,8.15
2018-04-27T01:02:14.199Z,8.11
2018-04-27T01:04:42.495Z,8.07
2018-04-27T01:07:10.290Z,8.02
2018-04-27T01:09:37.883Z,7.98
2018-04-27T01:12:05.737Z,7.94
2018-04-27T01:14:33.963Z,7.88
2018-04-27T01:17:01.499Z,7.86
2018-04-27T01:19:29.867Z,7.85
2018-04-27T01:21:57.395Z,7.83
2018-04-27T01:24:24.915Z,7.78
2018-04-27T01:26:52.476Z,7.80
2018-04-27T01:29:20.032Z,7.78
2018-04-27T01:31:48.776Z,7.79
2018-04-27T01:34:17.189Z,7.79
2018-04-27T01:36:45.301Z,7.78
2018-04-27T01:39:12.823Z,7.77
2018-04-27T01:41:40.395Z,7.76
2018-04-27T01:44:08.595Z,7.74
2018-04-27T01:46:36.122Z,7.75
2018-04-27T01:49:04.669Z,7.78
2018-04-27T01:51:32.302Z,7.79
2018-04-27T01:54:00.854Z,7.81
2018-04-27T01:56:28.898Z,7.82
2018-04-27T01:58:56.434Z,7.82
2018-04-27T02:01:24.444Z,7.79
2018-04-27T02:03:53.041Z,7.78
2018-04-27T02:06:21.175Z,7.70
2018-04-27T02:08:48.694Z,7.64
2018-04-27T02:11:16.797Z,7.56
2018-04-27T02:13:44.715Z,7.45
2018-04-27T02:16:12.259Z,7.33
2018-04-27T02:18:39.779Z,7.22
2018-04-27T02:21:08.462Z,7.13
2018-04-27T02:23:35.979Z,7.04
2018-04-27T02:26:03.511Z,6.96
2018-04-27T02:28:31.068Z,6.88
2018-04-27T02:30:58.723Z,6.81
2018-04-27T02:33:26.961Z,6.76
2018-04-27T02:35:55.250Z,6.70
2018-04-27T02:38:23.263Z,6.67
2018-04-27T02:40:50.783Z,6.66
2018-04-27T02:43:18.321Z,6.61
2018-04-27T02:45:45.879Z,6.59
2018-04-27T02:48:14.356Z,6.59
2018-04-27T02:50:41.931Z,6.59
2018-04-27T02:53:10.268Z,6.60
2018-04-27T02:55:38.676Z,6.59
2018-04-27T02:58:06.198Z,6.58
2018-04-27T03:00:33.745Z,6.55
2018-04-27T03:03:02.159Z,6.52
2018-04-27T03:05:30.463Z,6.48
2018-04-27T03:07:58.123Z,6.45
2018-04-27T03:10:26.194Z,6.40
2018-04-27T03:12:54.772Z,6.37
2018-04-27T03:15:22.302Z,6.34
2018-04-27T03:17:49.835Z,6.35
2018-04-27T03:20:18.599Z,6.34
2018-04-27T03:22:46.120Z,6.32
2018-04-27T03:25:13.659Z,6.29
2018-04-27T03:27:41.223Z,6.26
2018-04-27T03:30:09.463Z,6.24
2018-04-27T03:32:37.794Z,6.23
2018-04-27T03:35:05.725Z,6.25
2018-04-27T03:37:33.243Z,6.27
2018-04-27T03:40:00.793Z,6.33
2018-04-27T03:42:28.846Z,6.36
2018-04-27T03:44:56.370Z,6.41
2018-04-27T03:47:24.425Z,6.49
2018-04-27T03:49:51.991Z,6.59
2018-04-27T03:52:19.520Z,6.67
2018-04-27T03:54:47.714Z,6.75
2018-04-27T03:57:16.333Z,6.82
2018-04-27T03:59:55.741Z,6.90
2018-04-27T04:02:35.142Z,6.96
2018-04-27T04:05:16.182Z,7.01
2018-04-27T04:07:43.711Z,7.05
2018-04-27T04:10:12.030Z,7.10
2018-04-27T04:12:39.871Z,7.17
2018-04-27T04:15:08.095Z,7.29
2018-04-27T04:17:35.640Z,7.44
2018-04-27T04:20:03.563Z,7.58
2018-04-27T04:22:31.823Z,7.70
2018-04-27T04:24:59.394Z,7.77
2018-04-27T04:27:27.502Z,7.82
2018-04-27T04:29:55.033Z,7.81
2018-04-27T04:32:23.466Z,7.80
2018-04-27T04:34:51.700Z,7.81
2018-04-27T04:37:19.222Z,7.78
2018-04-27T04:39:46.739Z,7.79
2018-04-27T04:42:14.295Z,7.76
2018-04-27T04:44:42.678Z,7.73
2018-04-27T04:47:10.950Z,7.70
2018-04-27T04:49:38.566Z,7.71
2018-04-27T04:52:06.108Z,7.78
2018-04-27T04:54:34.330Z,7.87
2018-04-27T04:57:01.886Z,7.96
2018-04-27T04:59:30.434Z,8.09
2018-04-27T05:01:58.661Z,8.16
2018-04-27T05:04:27.035Z,8.19
2018-04-27T05:06:55.282Z,8.21
2018-04-27T05:09:22.809Z,8.32
2018-04-27T05:11:50.927Z,8.45
2018-04-27T05:14:19.274Z,8.59
2018-04-27T05:16:47.382Z,8.74
2018-04-27T05:19:14.941Z,8.83
2018-04-27T05:21:42.467Z,8.88
2018-04-27T05:24:10.132Z,8.94
2018-04-27T05:26:38.922Z,9.05
2018-04-27T05:29:06.495Z,9.08
2018-04-27T05:31:34.036Z,9.11
2018-04-27T05:34:02.123Z,9.18
2018-04-27T05:36:30.465Z,9.32
2018-04-27T05:38:58.234Z,9.48
2018-04-27T05:41:25.863Z,9.62
2018-04-27T05:43:53.474Z,9.66
2018-04-27T05:46:21.047Z,9.71
2018-04-27T05:48:49.451Z,9.75
2018-04-27T05:51:17.430Z,9.80
2018-04-27T05:53:45.594Z,9.77
2018-04-27T05:56:13.154Z,9.80
2018-04-27T05:58:40.690Z,9.81
2018-04-27T06:01:08.413Z,9.85
2018-04-27T06:03:48.394Z,9.96
2018-04-27T06:06:16.662Z,10.00
2018-04-27T06:08:45.043Z,10.09
2018-04-27T06:11:13.388Z,10.19
2018-04-27T06:13:41.418Z,10.31
2018-04-27T06:16:09.779Z,10.37
2018-04-27T06:18:37.339Z,10.40
2018-04-27T06:21:05.364Z,10.46
2018-04-27T06:23:33.727Z,10.52
2018-04-27T06:26:01.315Z,10.47
2018-04-27T06:28:29.030Z,10.42
2018-04-27T06:30:56.644Z,10.45
2018-04-27T06:33:24.182Z,10.51
2018-04-27T06:35:52.191Z,10.57
2018-04-27T06:38:19.746Z,10.60
2018-04-27T06:40:47.342Z,10.71
2018-04-27T06:43:15.044Z,10.88
2018-04-27T06:45:42.612Z,10.98
2018-04-27T06:48:10.759Z,11.09
2018-04-27T06:50:38.607Z,11.19
2018-04-27T06:53:07.097Z,11.29
2018-04-27T06:55:34.674Z,11.25
2018-04-27T06:58:02.243Z,11.33
2018-04-27T07:00:29.928Z,11.40
2018-04-27T07:02:58.654Z,11.54
2018-04-27T07:05:26.846Z,11.66
2018-04-27T07:07:54.424Z,11.66
2018-04-27T07:10:22.765Z,11.62
2018-04-27T07:12:50.360Z,11.63
2018-04-27T07:15:18.467Z,11.56
2018-04-27T07:17:45.993Z,11.57
2018-04-27T07:20:14.896Z,11.48
2018-04-27T07:22:43.159Z,11.39
2018-04-27T07:25:10.711Z,11.36
2018-04-27T07:27:38.511Z,11.36
2018-04-27T07:30:06.130Z,11.35
2018-04-27T07:32:33.668Z,11.21
2018-04-27T07:35:01.967Z,11.06
2018-04-27T07:37:29.663Z,10.85
2018-04-27T07:39:57.991Z,10.76
2018-04-27T07:42:25.584Z,10.84
2018-04-27T07:44:53.143Z,10.89
2018-04-27T07:47:21.654Z,10.96
2018-04-27T07:49:49.234Z,11.01
2018-04-27T07:52:17.527Z,11.00
2018-04-27T07:54:45.587Z,11.21
2018-04-27T07:57:13.697Z,11.52
2018-04-27T07:59:41.324Z,11.83
2018-04-27T08:02:08.953Z,12.17
2018-04-27T08:04:37.305Z,12.53
2018-04-27T08:07:04.911Z,12.59
2018-04-27T08:09:33.318Z,12.55
2018-04-27T08:12:01.577Z,12.55
2018-04-27T08:14:30.602Z,12.35
2018-04-27T08:16:58.464Z,12.18
2018-04-27T08:19:26.678Z,12.14
2018-04-27T08:21:54.238Z,12.10
2018-04-27T08:24:21.825Z,12.19
2018-04-27T08:26:49.400Z,12.31
2018-04-27T08:29:17.524Z,12.36
2018-04-27T08:31:45.132Z,12.32
2018-04-27T08:34:12.693Z,12.27
2018-04-27T08:36:41.209Z,12.15
2018-04-27T08:39:08.734Z,12.01
2018-04-27T08:41:36.258Z,11.97
2018-04-27T08:44:03.826Z,11.94
2018-04-27T08:46:31.379Z,11.92
2018-04-27T08:48:59.826Z,11.92
2018-04-27T08:51:27.461Z,11.90
2018-04-27T08:53:55.991Z,11.88
2018-04-27T08:56:23.530Z,11.88
2018-04-27T08:58:51.658Z,11.86
2018-04-27T09:01:19.184Z,11.86
2018-04-27T09:03:47.444Z,11.91
2018-04-27T09:06:15.729Z,11.90
2018-04-27T09:08:44.187Z,11.92
2018-04-27T09:11:12.380Z,11.97
2018-04-27T09:13:40.660Z,11.95
2018-04-27T09:16:09.279Z,11.94
2018-04-27T09:18:36.802Z,11.95
2018-04-27T09:21:04.370Z,11.96
2018-04-27T09:23:31.982Z,11.96
2018-04-27T09:26:00.494Z,11.96
2018-04-27T09:28:28.834Z,12.08
2018-04-27T09:30:56.394Z,12.24
2018-04-27T09:33:23.926Z,12.52
2018-04-27T09:35:52.152Z,12.70
2018-04-27T09:38:20.515Z,12.91
2018-04-27T09:40:48.096Z,13.17
2018-04-27T09:43:15.707Z,13.33
2018-04-27T09:45:43.346Z,13.41
2018-04-27T09:48:12.012Z,13.35
2018-04-27T09:50:39.658Z,13.21
2018-04-27T09:53:07.997Z,13.05
2018-04-27T09:55:35.531Z,13.18
2018-04-27T09:58:03.186Z,13.48
2018-04-27T10:00:31.522Z,13.73
2018-04-27T10:02:59.465Z,13.81
2018-04-27T10:05:27.640Z,13.92
2018-04-27T10:07:55.196Z,13.88
2018-04-27T10:10:23.150Z,13.85
2018-04-27T10:12:51.248Z,14.00
2018-04-27T10:15:19.424Z,14.15
2018-04-27T10:17:46.975Z,14.18
2018-04-27T10:20:14.503Z,14.15
2018-04-27T10:22:42.097Z,14.19
2018-04-27T10:25:09.799Z,14.35
2018-04-27T10:27:37.501Z,14.63
2018-04-27T10:30:05.076Z,14.93
2018-04-27T10:32:32.645Z,15.10
2018-04-27T10:35:01.124Z,15.44
2018-04-27T10:37:29.262Z,15.60
2018-04-27T10:39:56.818Z,15.69
2018-04-27T10:42:24.389Z,15.70
2018-04-27T10:44:51.928Z,15.79
2018-04-27T10:47:20.496Z,15.85
2018-04-27T10:49:48.078Z,16.08
2018-04-27T10:52:15.650Z,16.13
2018-04-27T10:54:43.726Z,16.26
2018-04-27T10:57:11.515Z,16.30
2018-04-27T10:59:39.287Z,16.16
2018-04-27T11:02:06.884Z,16.23
2018-04-27T11:04:35.440Z,16.34
2018-04-27T11:07:03.703Z,16.35
2018-04-27T11:09:31.929Z,16.38
2018-04-27T11:12:00.360Z,16.34
2018-04-27T11:14:28.655Z,16.25
2018-04-27T11:16:56.505Z,16.24
2018-04-27T11:19:23.846Z,16.20
2018-04-27T11:21:52.329Z,15.99
2018-04-27T11:24:19.910Z,15.83
2018-04-27T11:26:47.559Z,15.81
2018-04-27T11:29:15.114Z,15.75
2018-04-27T11:31:42.639Z,15.58
2018-04-27T11:34:10.174Z,15.30
2018-04-27T11:36:38.539Z,15.26
2018-04-27T11:39:06.831Z,15.15
2018-04-27T11:41:34.362Z,15.14
2018-04-27T11:44:01.909Z,15.15
2018-04-27T11:46:29.679Z,15.20
2018-04-27T11:48:58.087Z,15.39
2018-04-27T11:51:25.673Z,15.56
2018-04-27T11:53:54.506Z,15.65
2018-04-27T11:56:22.062Z,15.68
2018-04-27T11:58:49.621Z,15.68
2018-04-27T12:01:17.268Z,15.57
2018-04-27T12:03:45.617Z,15.40
2018-04-27T12:06:14.287Z,15.15
2018-04-27T12:08:42.829Z,14.89
2018-04-27T12:11:11.231Z,14.67
2018-04-27T12:13:40.510Z,14.37
2018-04-27T12:16:08.383Z,13.80
2018-04-27T12:18:35.992Z,13.22
2018-04-27T12:21:03.586Z,12.72
2018-04-27T12:23:31.128Z,12.32
2018-04-27T12:25:58.707Z,12.19
2018-04-27T12:28:26.327Z,12.21
2018-04-27T12:30:53.890Z,12.40
2018-04-27T12:33:21.406Z,12.71
2018-04-27T12:35:49.736Z,13.10
2018-04-27T12:38:18.092Z,13.49
2018-04-27T12:40:45.698Z,13.74
2018-04-27T12:43:13.921Z,14.02
2018-04-27T12:45:41.475Z,14.05
2018-04-27T12:48:09.751Z,14.10
2018-04-27T12:50:37.402Z,14.16
2018-04-27T12:53:05.411Z,14.24
2018-04-27T12:55:32.990Z,14.39
2018-04-27T12:58:00.581Z,14.54
2018-04-27T13:00:28.487Z,14.72
2018-04-27T13:02:56.023Z,15.00
2018-04-27T13:05:24.499Z,15.01
2018-04-27T13:07:52.685Z,14.85
2018-04-27T13:10:20.938Z,14.87
2018-04-27T13:12:48.521Z,14.82
2018-04-27T13:15:16.967Z,14.82
2018-04-27T13:17:44.538Z,14.71
2018-04-27T13:20:12.096Z,14.48
2018-04-27T13:22:39.662Z,14.34
2018-04-27T13:25:07.346Z,14.35
2018-04-27T13:27:34.895Z,14.40
2018-04-27T13:30:02.474Z,14.34
2018-04-27T13:32:30.002Z,14.26
2018-04-27T13:34:58.121Z,14.38
2018-04-27T13:37:25.675Z,14.57
2018-04-27T13:39:53.239Z,14.59
2018-04-27T13:42:20.859Z,14.43
2018-04-27T13:44:49.219Z,14.21
2018-04-27T13:47:17.610Z,14.05
2018-04-27T13:49:45.143Z,14.01
2018-04-27T13:52:12.730Z,13.97
2018-04-27T13:54:41.295Z,13.95
2018-04-27T13:57:09.029Z,13.82
2018-04-27T13:59:36.626Z,13.72
2018-04-27T14:02:04.278Z,13.66
2018-04-27T14:04:32.668Z,13.80
2018-04-27T14:07:00.863Z,13.93
2018-04-27T14:09:29.628Z,13.85
2018-04-27T14:11:58.115Z,13.82
2018-04-27T14:14:26.427Z,13.86
2018-04-27T14:16:54.002Z,13.90
2018-04-27T14:19:21.571Z,13.87
2018-04-27T14:21:49.207Z,13.86
2018-04-27T14:24:16.742Z,13.86
2018-04-27T14:26:44.512Z,13.94
2018-04-27T14:29:12.194Z,13.99
2018-04-27T14:31:39.719Z,14.07
2018-04-27T14:34:08.281Z,14.15
2018-04-27T14:36:36.518Z,14.13
2018-04-27T14:39:04.118Z,14.07
2018-04-27T14:41:31.671Z,13.93
2018-04-27T14:43:59.354Z,13.71
2018-04-27T14:46:26.910Z,13.71
2018-04-27T14:48:55.203Z,13.71
2018-04-27T14:51:23.977Z,13.74
2018-04-27T14:53:52.123Z,13.69
2018-04-27T14:56:19.687Z,13.68
2018-04-27T14:58:47.251Z,13.57
2018-04-27T15:01:15.337Z,13.36
2018-04-27T15:03:44.233Z,13.05
2018-04-27T15:06:12.356Z,12.82
2018-04-27T15:08:39.887Z,12.85
2018-04-27T15:11:08.115Z,12.87
2018-04-27T15:13:36.487Z,12.83
2018-04-27T15:16:04.238Z,12.85
2018-04-27T15:18:31.775Z,12.81
2018-04-27T15:20:59.506Z,12.89
2018-04-27T15:23:27.065Z,13.05
2018-04-27T15:25:54.606Z,13.28
2018-04-27T15:28:22.482Z,13.35
2018-04-27T15:30:50.060Z,13.53
2018-04-27T15:33:17.606Z,13.80
2018-04-27T15:35:45.759Z,14.10
2018-04-27T15:38:13.884Z,14.54
2018-04-27T15:40:41.472Z,14.98
2018-04-27T15:43:09.090Z,15.08
2018-04-27T15:45:36.648Z,15.62
2018-04-27T15:48:04.594Z,16.22
2018-04-27T15:50:32.180Z,16.81
2018-04-27T15:53:00.415Z,17.36
2018-04-27T15:55:28.821Z,18.01
2018-04-27T15:57:56.363Z,18.61
2018-04-27T16:00:24.409Z,19.00
2018-04-27T16:02:51.992Z,19.21
2018-04-27T16:05:20.070Z,19.30
2018-04-27T16:07:48.127Z,18.57
2018-04-27T16:10:16.426Z,18.57
2018-04-27T16:12:44.076Z,18.26
2018-04-27T16:15:12.368Z,17.41
2018-04-27T16:17:40.105Z,16.86
2018-04-27T16:20:07.665Z,16.40
2018-04-27T16:22:35.290Z,16.03
2018-04-27T16:25:02.850Z,15.75
2018-04-27T16:27:30.420Z,15.54
2018-04-27T16:29:58.140Z,15.22
2018-04-27T16:32:25.721Z,15.09
2018-04-27T16:34:54.216Z,15.27
2018-04-27T16:37:22.441Z,15.26
2018-04-27T16:39:50.742Z,15.28
2018-04-27T16:42:19.154Z,15.71
2018-04-27T16:44:46.718Z,15.62
2018-04-27T16:47:15.243Z,15.46
2018-04-27T16:49:42.899Z,15.40
2018-04-27T16:52:10.443Z,15.29
2018-04-27T16:54:38.799Z,14.98
2018-04-27T16:57:06.886Z,14.76
2018-04-27T16:59:34.458Z,14.59
2018-04-27T17:02:02.018Z,14.45
2018-04-27T17:04:30.408Z,14.36
2018-04-27T17:06:58.782Z,14.23
2018-04-27T17:09:27.061Z,14.10
2018-04-27T17:11:55.455Z,13.98
2018-04-27T17:14:23.602Z,13.88
2018-04-27T17:16:51.190Z,13.82
2018-04-27T17:19:18.857Z,13.72
2018-04-27T17:21:46.428Z,13.62
2018-04-27T17:24:14.000Z,13.47
2018-04-27T17:26:41.571Z,13.37
2018-04-27T17:29:09.341Z,13.35
2018-04-27T17:31:36.898Z,13.39
2018-04-27T17:34:04.471Z,13.34
2018-04-27T17:36:32.854Z,13.37
2018-04-27T17:39:00.428Z,13.73
2018-04-27T17:41:28.137Z,14.40
2018-04-27T17:43:56.186Z,14.88
2018-04-27T17:46:23.767Z,15.16
2018-04-27T17:48:52.014Z,15.41
2018-04-27T17:51:19.664Z,15.75
2018-04-27T17:53:48.010Z,16.01
2018-04-27T17:56:15.544Z,16.13
2018-04-27T17:58:43.099Z,16.20
2018-04-27T18:01:10.664Z,16.02
2018-04-27T18:03:38.867Z,15.89
2018-04-27T18:06:07.069Z,15.72
2018-04-27T18:08:34.635Z,15.46
2018-04-27T18:11:02.696Z,15.25
2018-04-27T18:13:30.889Z,14.84
2018-04-27T18:15:59.143Z,14.41
2018-04-27T18:18:26.703Z,14.03
2018-04-27T18:20:54.319Z,13.68
2018-04-27T18:23:22.335Z,13.40
2018-04-27T18:25:49.908Z,13.17
2018-04-27T18:28:17.584Z,12.87
2018-04-27T18:30:45.219Z,12.64
2018-04-27T18:33:12.822Z,12.44
2018-04-27T18:35:40.996Z,12.30
2018-04-27T18:38:08.613Z,12.12
2018-04-27T18:40:36.194Z,11.99
2018-04-27T18:43:03.855Z,11.86
2018-04-27T18:45:31.430Z,11.77
2018-04-27T18:48:00.157Z,11.62
2018-04-27T18:50:30.608Z,11.51
2018-04-27T18:53:00.318Z,11.39
2018-04-27T18:55:28.746Z,11.29
2018-04-27T18:57:56.375Z,11.18
2018-04-27T19:00:29.343Z,11.10
2018-04-27T19:02:56.961Z,11.00
2018-04-27T19:05:25.299Z,10.94
2018-04-27T19:07:56.787Z,10.87
2018-04-27T19:10:25.035Z,10.79
2018-04-27T19:12:52.639Z,10.71
2018-04-27T19:15:21.055Z,10.64
2018-04-27T19:17:48.643Z,10.56
2018-04-27T19:20:16.791Z,10.48
2018-04-27T19:22:44.374Z,10.41
2018-04-27T19:25:11.971Z,10.33
2018-04-27T19:27:39.748Z,10.25
2018-04-27T19:30:07.372Z,10.19
2018-04-27T19:32:35.016Z,10.11
2018-04-27T19:35:03.394Z,10.03
2018-04-27T19:37:31.033Z,9.93
2018-04-27T19:39:58.650Z,9.86
2018-04-27T19:42:26.662Z,9.80
2018-04-27T19:44:54.240Z,9.74
2018-04-27T19:47:22.363Z,9.68
2018-04-27T19:49:50.579Z,9.63
2018-04-27T19:52:18.150Z,9.59
2018-04-27T19:54:46.466Z,9.54
2018-04-27T19:57:14.026Z,9.50
2018-04-27T19:59:41.703Z,9.43
2018-04-27T20:02:09.358Z,9.39
2018-04-27T20:04:37.592Z,9.33
2018-04-27T20:07:05.695Z,9.30
2018-04-27T20:09:34.193Z,9.27
2018-04-27T20:12:02.840Z,9.20
2018-04-27T20:14:36.834Z,9.15
2018-04-27T20:17:05.101Z,9.07
2018-04-27T20:19:37.226Z,8.99
2018-04-27T20:22:22.603Z,8.93
2018-04-27T20:24:54.803Z,8.85
2018-04-27T20:27:22.415Z,8.78
2018-04-27T20:29:55.114Z,8.69
2018-04-27T20:32:22.824Z,8.59
2018-04-27T20:34:51.110Z,8.52
2018-04-27T20:37:18.743Z,8.45
2018-04-27T20:39:46.358Z,8.40
2018-04-27T20:42:13.971Z,8.33
2018-04-27T20:44:41.542Z,8.28
2018-04-27T20:47:10.119Z,8.25
2018-04-27T20:49:37.727Z,8.21
2018-04-27T20:52:05.286Z,8.18
2018-04-27T20:54:33.791Z,8.16
2018-04-27T20:57:02.259Z,8.13
2018-04-27T20:59:29.851Z,8.10
2018-04-27T21:01:57.460Z,8.07
2018-04-27T21:04:25.892Z,8.03
2018-04-27T21:06:57.873Z,8.00
2018-04-27T21:09:25.854Z,7.95
2018-04-27T21:11:54.124Z,7.89
2018-04-27T21:14:22.446Z,7.83
2018-04-27T21:16:50.041Z,7.77
2018-04-27T21:19:17.601Z,7.72
2018-04-27T21:21:45.597Z,7.69
2018-04-27T21:24:13.160Z,7.65
2018-04-27T21:26:40.874Z,7.61
2018-04-27T21:29:08.711Z,7.57
2018-04-27T21:31:36.809Z,7.53
2018-04-27T21:34:04.395Z,7.48
2018-04-27T21:36:32.249Z,7.44
2018-04-27T21:39:16.871Z,7.41
2018-04-27T21:42:00.095Z,7.38
2018-04-27T21:44:29.960Z,7.31
2018-04-27T21:47:02.315Z,7.26
2018-04-27T21:49:29.915Z,7.17
2018-04-27T21:52:00.309Z,7.08
2018-04-27T21:54:28.710Z,7.00
2018-04-27T21:57:04.899Z,6.91
2018-04-27T22:06:09.754Z,6.81
2018-04-27T22:08:42.080Z,6.79
2018-04-27T22:11:12.113Z,6.77
2018-04-27T22:13:40.138Z,6.74
2018-04-27T22:16:13.301Z,6.73
2018-04-27T22:18:40.911Z,6.75
2018-04-27T22:21:08.526Z,6.75
2018-04-27T22:23:36.892Z,6.74
2018-04-27T22:26:05.377Z,6.72
2018-04-27T22:28:41.705Z,6.68
2018-04-27T22:31:09.425Z,6.68
2018-04-27T22:33:41.837Z,6.68
2018-04-27T22:36:21.715Z,6.65
2018-04-27T22:38:56.699Z,6.63
2018-04-27T22:41:24.291Z,6.61
2018-04-27T22:43:55.070Z,6.59
2018-04-27T22:46:23.308Z,6.56
2018-04-27T22:49:08.076Z,6.53
2018-04-27T22:51:38.587Z,6.49
2018-04-27T22:54:08.646Z,6.45
2018-04-27T22:56:53.977Z,6.41
2018-04-27T22:59:33.267Z,6.38
2018-04-27T23:02:21.648Z,6.34
2018-04-27T23:05:00.440Z,6.32
2018-04-27T23:07:36.462Z,6.29
2018-04-27T23:10:05.815Z,6.25
2018-04-27T23:12:33.383Z,6.25
2018-04-27T23:15:01.601Z,6.23
2018-04-27T23:17:29.445Z,6.22
2018-04-27T23:20:08.821Z,6.23
2018-04-27T23:22:38.370Z,6.22
2018-04-27T23:25:07.942Z,6.22
2018-04-27T23:27:36.342Z,6.22
2018-04-27T23:30:05.850Z,6.20
2018-04-27T23:32:33.420Z,6.17
2018-04-27T23:35:01.511Z,6.14
2018-04-27T23:37:29.955Z,6.11
2018-04-27T23:39:59.178Z,6.07
2018-04-27T23:42:26.768Z,6.02
2018-04-27T23:44:54.347Z,5.96
2018-04-27T23:47:22.636Z,5.94
2018-04-27T23:49:50.220Z,5.90
2018-04-27T23:52:17.813Z,5.86
2018-04-27T23:54:46.087Z,5.82
2018-04-27T23:57:17.343Z,5.80
2018-04-27T23:59:44.910Z,5.81
